Time;durP1;ratioP1;P1;durP2;ratioP2;P2;SDS_P1;SDS_P2;PMS_P1;PMS_P2;Temp;Humidity;BMP_temperature;BMP_pressure;BME280_temperature;BME280_humidity;BME280_pressure;Samples;Min_cycle;Max_cycle;Signal;HPM_P1;HPM_P2
2023/10/25 00:01:09;;;;;;;;;1.00;0.00;;;;;18.34;52.12;99212.09;5079007;28;46033;-75
2023/10/25 00:03:35;;;;;;;;;0.00;0.00;;;;;17.84;52.13;99118.06;5078976;27;45492;-76
2023/10/25 00:06:01;;;;;;;;;0.00;0.00;;;;;18.08;52.20;99153.66;5079004;27;45490;-75
2023/10/25 00:08:27;;;;;;;;;0.00;0.00;;;;;18.42;51.90;99197.81;5079285;27;45279;-75
2023/10/25 00:11:11;;;;;;;;;0.00;0.00;;;;;18.42;52.00;99200.44;5078619;27;45953;-76
2023/10/25 00:13:38;;;;;;;;;0.00;0.00;;;;;18.36;51.99;99175.91;5078857;27;45360;-76
2023/10/25 00:16:04;;;;;;;;;0.00;0.00;;;;;18.19;52.06;99141.97;5078781;27;45196;-75
2023/10/25 00:18:30;;;;;;;;;0.00;0.00;;;;;18.37;51.93;99157.38;5077589;27;45457;-75
2023/10/25 00:20:55;;;;;;;;;0.00;0.00;;;;;18.43;51.77;99164.28;5078579;27;45400;-75
2023/10/25 00:23:21;;;;;;;;;0.00;0.00;;;;;18.65;52.05;99184.00;5077705;27;45548;-75
2023/10/25 00:25:49;;;;;;;;;0.00;0.00;;;;;18.61;51.58;99168.25;5078860;27;45564;-75
2023/10/25 00:28:15;;;;;;;;;0.00;0.00;;;;;18.46;51.46;99128.06;5079181;27;45300;-77
2023/10/25 00:30:40;;;;;;;;;0.00;0.00;;;;;18.73;51.38;99164.44;5078204;27;46138;-76
2023/10/25 00:33:06;;;;;;;;;0.00;0.00;;;;;18.76;51.51;99159.06;5078457;27;45430;-76
2023/10/25 00:35:32;;;;;;;;;0.00;0.00;;;;;18.86;51.46;99187.94;5078905;28;45600;-76
2023/10/25 00:37:58;;;;;;;;;0.00;0.00;;;;;18.66;51.64;99126.66;5078532;27;45279;-76
2023/10/25 00:40:24;;;;;;;;;0.00;0.00;;;;;18.85;51.51;99161.50;5078197;27;45381;-76
2023/10/25 00:42:50;;;;;;;;;0.00;0.00;;;;;18.90;51.36;99172.84;5078465;27;45405;-76
2023/10/25 00:45:15;;;;;;;;;0.00;0.00;;;;;18.83;51.44;99160.69;5078495;27;45421;-75
2023/10/25 00:47:43;;;;;;;;;0.00;0.00;;;;;18.87;51.82;99164.97;5078578;27;45437;-76
2023/10/25 00:50:10;;;;;;;;;0.00;0.00;;;;;18.81;51.50;99163.34;5078151;27;46209;-76
2023/10/25 00:52:37;;;;;;;;;0.00;0.00;;;;;18.76;51.72;99167.88;5078089;28;45402;-76
2023/10/25 00:55:03;;;;;;;;;0.00;0.00;;;;;18.65;51.94;99159.34;5078060;28;45495;-77
2023/10/25 00:57:32;;;;;;;;;0.00;0.00;;;;;18.48;51.69;99128.91;5078135;27;45495;-76
2023/10/25 00:59:59;;;;;;;;;0.00;0.00;;;;;18.61;51.65;99147.97;5077860;27;45465;-76
2023/10/25 01:02:25;;;;;;;;;0.00;0.00;;;;;18.63;51.84;99169.94;5077895;27;45461;-75
2023/10/25 01:04:51;;;;;;;;;0.00;0.00;;;;;18.32;52.06;99126.66;5076708;28;45292;-75
2023/10/25 01:07:16;;;;;;;;;0.00;0.00;;;;;18.59;52.23;99168.28;5078564;27;45316;-75
2023/10/25 01:09:42;;;;;;;;;0.00;0.00;;;;;18.49;52.26;99158.84;5077529;28;45436;-75
2023/10/25 01:12:08;;;;;;;;;0.00;0.00;;;;;18.56;52.41;99172.78;5077810;27;45173;-76
2023/10/25 01:14:34;;;;;;;;;0.00;0.00;;;;;18.43;52.75;99159.00;5078120;27;45230;-75
2023/10/25 01:16:59;;;;;;;;;0.00;0.00;;;;;18.39;52.66;99174.06;5078257;27;45337;-76
2023/10/25 01:19:25;;;;;;;;;0.00;0.00;;;;;18.32;52.68;99148.66;5077818;28;45511;-75
2023/10/25 01:21:50;;;;;;;;;0.00;0.00;;;;;18.34;52.46;99159.22;5077744;27;45362;-75
2023/10/25 01:24:17;;;;;;;;;0.00;0.00;;;;;18.20;52.60;99131.31;5078229;28;45480;-75
2023/10/25 01:26:42;;;;;;;;;0.00;0.00;;;;;18.49;52.61;99195.88;5077952;27;45352;-76
2023/10/25 01:29:08;;;;;;;;;0.00;0.00;;;;;18.44;52.55;99173.94;5077275;28;45458;-75
2023/10/25 01:31:33;;;;;;;;;0.00;0.00;;;;;18.44;52.79;99168.66;5077606;27;45324;-76
2023/10/25 01:33:59;;;;;;;;;0.00;0.00;;;;;17.65;52.74;99034.84;5077610;27;45369;-75
2023/10/25 01:36:24;;;;;;;;;0.00;0.00;;;;;18.25;52.66;99137.38;5077901;27;45489;-75
2023/10/25 01:38:50;;;;;;;;;0.00;0.00;;;;;18.54;52.53;99169.31;5077912;27;45468;-75
2023/10/25 01:41:16;;;;;;;;;0.00;0.00;;;;;18.57;52.34;99169.25;5077494;27;45402;-75
2023/10/25 01:43:44;;;;;;;;;0.00;0.00;;;;;18.54;52.41;99158.72;5078040;27;45635;-75
2023/10/25 01:46:10;;;;;;;;;0.00;0.00;;;;;18.57;52.08;99170.09;5077787;27;45537;-76
2023/10/25 01:48:38;;;;;;;;;0.00;0.00;;;;;18.42;51.78;99131.69;5077244;27;45283;-76
2023/10/25 01:51:08;;;;;;;;;0.00;0.00;;;;;18.66;51.45;99161.06;5077311;27;45483;-76
2023/10/25 01:53:34;;;;;;;;;0.00;0.00;;;;;18.66;51.22;99145.19;5077353;28;45516;-75
2023/10/25 01:56:00;;;;;;;;;0.00;0.00;;;;;18.80;51.09;99156.34;5075881;27;45644;-76
2023/10/25 01:58:26;;;;;;;;;0.00;0.00;;;;;18.94;51.05;99163.03;5077106;27;45283;-75
2023/10/25 02:00:51;;;;;;;;;0.00;0.00;;;;;18.92;50.60;99164.84;5077611;27;45431;-76
2023/10/25 02:03:17;;;;;;;;;0.00;0.00;;;;;18.94;51.10;99168.31;5077164;27;45500;-76
2023/10/25 02:05:43;;;;;;;;;0.00;0.00;;;;;19.07;52.23;99190.91;5077533;27;45414;-76
2023/10/25 02:08:08;;;;;;;;;0.00;0.00;;;;;18.95;51.66;99164.78;5077071;27;45543;-76
2023/10/25 02:10:34;;;;;;;;;0.00;0.00;;;;;18.92;51.87;99162.19;5076871;27;45494;-77
2023/10/25 02:13:00;;;;;;;;;0.00;0.00;;;;;18.98;51.27;99169.97;5077210;27;45433;-76
2023/10/25 02:15:27;;;;;;;;;0.00;0.00;;;;;18.96;51.64;99182.38;5077270;27;45535;-75
2023/10/25 02:17:52;;;;;;;;;0.00;0.00;;;;;18.89;51.67;99171.09;5077182;27;45309;-76
2023/10/25 02:20:18;;;;;;;;;0.00;0.00;;;;;18.98;51.27;99183.22;5076837;28;45369;-76
2023/10/25 02:22:43;;;;;;;;;0.00;0.00;;;;;18.96;51.11;99179.72;5077167;27;45367;-75
2023/10/25 02:25:09;;;;;;;;;0.00;0.00;;;;;18.90;51.20;99170.22;5077177;28;45483;-76
2023/10/25 02:27:35;;;;;;;;;0.00;0.00;;;;;18.98;51.58;99188.50;5076851;27;45354;-76
2023/10/25 02:30:00;;;;;;;;;0.00;0.00;;;;;18.96;51.65;99192.97;5076667;27;45626;-76
2023/10/25 02:32:26;;;;;;;;;0.00;0.00;;;;;18.97;51.31;99194.72;5077047;27;45265;-78
2023/10/25 02:34:51;;;;;;;;;0.00;0.00;;;;;18.58;51.42;99123.34;5077457;27;45221;-77
2023/10/25 02:37:17;;;;;;;;;0.00;0.00;;;;;18.60;51.61;99148.88;5076680;27;45549;-77
2023/10/25 02:39:43;;;;;;;;;0.00;0.00;;;;;18.92;51.83;99197.50;5076450;27;45448;-77
2023/10/25 02:42:09;;;;;;;;;0.00;0.00;;;;;18.65;51.68;99154.03;5076750;27;45236;-77
2023/10/25 02:44:34;;;;;;;;;0.00;0.00;;;;;18.95;51.88;99207.13;5075839;28;45433;-77
2023/10/25 02:47:00;;;;;;;;;0.00;0.00;;;;;18.94;51.61;99223.88;5079221;27;45627;-76
2023/10/25 02:49:25;;;;;;;;;0.00;0.00;;;;;18.81;52.15;99192.47;5080058;27;45480;-76
2023/10/25 02:51:51;;;;;;;;;0.00;0.00;;;;;18.90;51.52;99209.91;5080599;27;45243;-76
2023/10/25 02:54:17;;;;;;;;;0.00;0.00;;;;;18.78;51.42;99176.66;5080300;27;45405;-76
2023/10/25 02:56:42;;;;;;;;;0.00;0.00;;;;;19.09;51.46;99223.50;5080089;28;46404;-77
2023/10/25 02:59:08;;;;;;;;;1.00;1.00;;;;;19.12;51.44;99223.44;5079877;27;45322;-77
2023/10/25 03:01:34;;;;;;;;;0.00;0.00;;;;;19.09;51.60;99231.44;5080110;27;45351;-77
2023/10/25 03:03:59;;;;;;;;;0.00;0.00;;;;;18.98;51.69;99222.91;5080335;28;45268;-76
2023/10/25 03:06:26;;;;;;;;;0.00;0.00;;;;;19.07;51.84;99251.78;5079995;27;45311;-76
2023/10/25 03:08:52;;;;;;;;;1.00;0.00;;;;;18.75;51.92;99200.50;5079940;27;45469;-77
2023/10/25 03:11:17;;;;;;;;;0.00;0.00;;;;;19.05;51.96;99241.25;5079545;27;45443;-77
2023/10/25 03:13:43;;;;;;;;;0.00;0.00;;;;;19.11;51.68;99237.56;5080002;27;45411;-78
2023/10/25 03:16:09;;;;;;;;;0.00;0.00;;;;;19.11;51.83;99234.91;5079487;27;45436;-77
2023/10/25 03:18:34;;;;;;;;;0.00;0.00;;;;;19.14;51.92;99224.28;5079549;27;45269;-76
2023/10/25 03:21:02;;;;;;;;;0.00;0.00;;;;;19.00;52.08;99216.69;5079887;27;45371;-77
2023/10/25 03:23:29;;;;;;;;;0.00;0.00;;;;;19.06;51.99;99231.53;5079814;27;45406;-77
2023/10/25 03:26:01;;;;;;;;;0.00;0.00;;;;;19.16;52.07;99242.72;5079655;27;46188;-77
2023/10/25 03:28:27;;;;;;;;;0.00;0.00;;;;;18.99;52.24;99222.00;5079652;27;45535;-77
2023/10/25 03:30:53;;;;;;;;;0.00;0.00;;;;;19.09;51.99;99249.97;5079879;27;45320;-77
2023/10/25 03:33:18;;;;;;;;;0.00;0.00;;;;;18.96;52.37;99236.19;5079794;27;45371;-77
2023/10/25 03:35:51;;;;;;;;;0.00;0.00;;;;;18.68;52.34;99205.09;5079266;28;45325;-78
2023/10/25 03:38:17;;;;;;;;;0.00;0.00;;;;;19.03;52.09;99258.94;5079432;27;45422;-77
2023/10/25 03:40:44;;;;;;;;;0.00;0.00;;;;;18.80;52.29;99226.88;5079435;27;45272;-77
2023/10/25 03:43:10;;;;;;;;;0.00;0.00;;;;;18.99;52.35;99257.28;5079692;27;45260;-78
2023/10/25 03:45:35;;;;;;;;;0.00;0.00;;;;;19.03;52.48;99266.88;5079136;28;45709;-77
2023/10/25 03:48:01;;;;;;;;;0.33;0.00;;;;;19.04;52.66;99270.41;5079219;28;45385;-76
2023/10/25 03:50:26;;;;;;;;;0.00;0.00;;;;;18.97;52.53;99253.81;5079518;27;45230;-76
2023/10/25 03:52:52;;;;;;;;;0.00;0.00;;;;;19.07;52.46;99279.13;5079504;27;45405;-77
2023/10/25 03:55:17;;;;;;;;;0.00;0.00;;;;;19.05;52.97;99272.13;5079083;28;45943;-77
2023/10/25 03:57:43;;;;;;;;;0.00;0.00;;;;;18.81;53.00;99237.44;5077894;27;45415;-76
2023/10/25 04:00:09;;;;;;;;;0.00;0.00;;;;;18.83;53.09;99240.06;5079116;27;45353;-77
2023/10/25 04:02:35;;;;;;;;;0.00;0.00;;;;;19.09;52.70;99276.44;5079203;28;45421;-77
2023/10/25 04:05:00;;;;;;;;;0.00;0.00;;;;;19.05;52.67;99267.72;5078875;27;45456;-76
2023/10/25 04:07:26;;;;;;;;;0.00;0.00;;;;;18.81;52.50;99228.63;5079078;27;45340;-76
2023/10/25 04:09:52;;;;;;;;;0.00;0.00;;;;;19.04;52.60;99265.13;5078897;28;45579;-77
2023/10/25 04:12:17;;;;;;;;;0.00;0.00;;;;;19.08;52.53;99291.47;5079225;27;45332;-77
2023/10/25 04:14:47;;;;;;;;;0.00;0.00;;;;;19.13;52.96;99309.88;5078787;27;46226;-77
2023/10/25 04:17:12;;;;;;;;;0.00;0.00;;;;;19.10;52.94;99315.25;5078563;27;45444;-77
2023/10/25 04:19:39;;;;;;;;;0.33;0.00;;;;;19.15;53.62;99323.06;5078489;27;45357;-77
2023/10/25 04:22:05;;;;;;;;;0.00;0.00;;;;;19.18;55.10;99330.91;5079029;28;45520;-77
2023/10/25 04:24:31;;;;;;;;;0.00;0.00;;;;;18.93;55.47;99285.69;5078533;27;46216;-76
2023/10/25 04:26:56;;;;;;;;;0.00;0.00;;;;;19.23;57.45;99344.94;5078887;27;45361;-76
2023/10/25 04:29:22;;;;;;;;;3.00;3.00;;;;;19.15;59.97;99358.34;5077251;28;45445;-78
2023/10/25 04:31:47;;;;;;;;;0.33;0.33;;;;;19.02;61.12;99352.50;5077686;28;45514;-76
2023/10/25 04:34:13;;;;;;;;;0.00;0.00;;;;;18.99;64.28;99362.28;5077813;27;46173;-76
2023/10/25 04:36:38;;;;;;;;;0.00;0.00;;;;;18.78;65.20;99343.31;5077418;28;45303;-76
2023/10/25 04:39:04;;;;;;;;;0.00;0.00;;;;;18.84;65.49;99372.31;5078255;27;45235;-76
2023/10/25 04:41:31;;;;;;;;;0.00;0.00;;;;;18.57;63.93;99322.63;5078657;27;45437;-77
2023/10/25 04:43:57;;;;;;;;;0.00;0.00;;;;;18.91;63.57;99374.81;5078480;27;46060;-77
2023/10/25 04:46:22;;;;;;;;;1.00;0.00;;;;;18.93;63.62;99375.66;5076837;27;45615;-76
2023/10/25 04:48:48;;;;;;;;;1.00;0.00;;;;;17.85;63.35;99203.50;5077986;27;45401;-76
2023/10/25 04:51:14;;;;;;;;;0.00;0.00;;;;;18.92;63.62;99385.38;5078088;28;45318;-77
2023/10/25 04:53:40;;;;;;;;;0.67;0.00;;;;;18.92;63.18;99392.41;5078062;27;45527;-77
2023/10/25 04:56:07;;;;;;;;;0.00;0.00;;;;;18.88;63.18;99389.84;5078315;27;45625;-78
2023/10/25 04:58:33;;;;;;;;;0.00;0.00;;;;;18.60;63.49;99343.72;5078039;27;45334;-77
2023/10/25 05:00:59;;;;;;;;;1.33;1.00;;;;;18.84;64.46;99392.59;5078659;28;45332;-77
2023/10/25 05:03:24;;;;;;;;;1.00;1.00;;;;;18.72;64.89;99388.44;5077731;27;46064;-77
2023/10/25 05:05:50;;;;;;;;;0.00;0.00;;;;;18.62;64.43;99376.28;5078107;27;45480;-77
2023/10/25 05:08:15;;;;;;;;;1.00;0.00;;;;;18.56;64.79;99374.66;5077690;27;45371;-77
2023/10/25 05:10:41;;;;;;;;;0.67;0.00;;;;;18.57;65.18;99381.69;5077985;27;45550;-77
2023/10/25 05:13:07;;;;;;;;;0.67;0.67;;;;;18.35;64.24;99333.69;5076168;28;45374;-76
2023/10/25 05:15:35;;;;;;;;;1.00;1.00;;;;;18.49;64.57;99376.56;5084258;27;45417;-75
2023/10/25 05:18:02;;;;;;;;;1.00;1.00;;;;;18.62;64.84;99389.50;5077186;27;45441;-76
2023/10/25 05:20:28;;;;;;;;;1.00;0.67;;;;;18.47;63.73;99367.78;5076962;27;45647;-78
2023/10/25 05:22:55;;;;;;;;;1.00;1.00;;;;;18.34;64.23;99342.50;5076630;27;45578;-78
2023/10/25 05:25:21;;;;;;;;;0.00;0.00;;;;;18.46;64.59;99370.44;5076845;27;45511;-76
2023/10/25 05:27:48;;;;;;;;;1.00;0.00;;;;;18.39;65.32;99374.16;5083776;27;45597;-77
2023/10/25 05:30:15;;;;;;;;;1.00;0.00;;;;;18.36;65.01;99374.19;5076727;27;45483;-76
2023/10/25 05:32:47;;;;;;;;;0.00;0.00;;;;;18.34;65.15;99376.00;5075262;28;45485;-76
2023/10/25 05:35:14;;;;;;;;;0.00;0.00;;;;;18.21;67.63;99373.63;5073909;28;45619;-74
2023/10/25 05:37:40;;;;;;;;;1.00;0.00;;;;;17.76;66.44;99323.34;5083862;27;45487;-75
2023/10/25 05:40:07;;;;;;;;;1.00;0.33;;;;;18.01;67.20;99378.44;5076754;27;45361;-75
2023/10/25 05:42:49;;;;;;;;;0.00;0.00;;;;;17.79;66.45;99356.78;5074201;28;45646;-77
2023/10/25 05:45:16;;;;;;;;;0.00;0.00;;;;;17.92;67.78;99381.22;5074129;28;45330;-76
2023/10/25 05:47:42;;;;;;;;;1.33;0.33;;;;;17.46;66.87;99309.81;5076612;27;45515;-75
2023/10/25 05:50:10;;;;;;;;;1.00;1.00;;;;;17.87;67.49;99390.13;5076618;27;45611;-77
2023/10/25 05:52:36;;;;;;;;;1.00;0.00;;;;;17.85;67.02;99394.56;5076345;27;45460;-78
2023/10/25 05:55:02;;;;;;;;;0.67;0.67;;;;;17.82;68.34;99386.63;5084889;27;45385;-76
2023/10/25 05:57:28;;;;;;;;;0.67;0.67;;;;;17.74;68.49;99379.75;5087532;27;45353;-80
2023/10/25 05:59:53;;;;;;;;;0.00;0.00;;;;;17.76;67.90;99383.25;5083385;27;46252;-77
2023/10/25 06:02:23;;;;;;;;;1.00;1.00;;;;;17.28;67.58;99305.72;5086948;27;45935;-79
2023/10/25 06:04:49;;;;;;;;;0.00;0.00;;;;;17.75;67.62;99376.22;5083643;27;45430;-79
2023/10/25 06:07:16;;;;;;;;;1.00;0.33;;;;;17.78;67.57;99373.53;5086039;27;45701;-78
2023/10/25 06:09:41;;;;;;;;;0.00;0.00;;;;;17.74;67.96;99356.84;5087518;27;45454;-77
2023/10/25 06:12:08;;;;;;;;;1.00;0.00;;;;;17.70;67.56;99361.31;5085188;27;45491;-77
2023/10/25 06:14:34;;;;;;;;;0.00;0.00;;;;;17.42;67.53;99313.41;5086165;27;45565;-77
2023/10/25 06:17:00;;;;;;;;;0.67;0.00;;;;;17.59;68.18;99351.88;5087148;27;45566;-77
2023/10/25 06:19:27;;;;;;;;;1.67;1.67;;;;;17.53;67.63;99351.94;5085509;27;45786;-78
2023/10/25 06:21:53;;;;;;;;;5.00;5.00;;;;;17.47;67.80;99364.38;5087091;27;45453;-79
2023/10/25 06:24:19;;;;;;;;;6.33;4.00;;;;;17.47;68.11;99368.78;5090389;27;45385;-77
2023/10/25 06:26:44;;;;;;;;;1.33;1.33;;;;;17.43;68.33;99388.22;5088429;27;45327;-77
2023/10/25 06:29:10;;;;;;;;;3.00;2.00;;;;;17.31;68.43;99386.66;5090083;27;45325;-79
2023/10/25 06:31:36;;;;;;;;;2.00;1.33;;;;;17.39;68.08;99403.25;5089788;27;46096;-77
2023/10/25 06:34:02;;;;;;;;;2.00;2.00;;;;;17.43;68.68;99404.06;5088487;27;45426;-78
2023/10/25 06:36:27;;;;;;;;;2.33;1.00;;;;;17.38;68.04;99404.13;5090253;27;45635;-78
2023/10/25 06:38:53;;;;;;;;;2.00;2.00;;;;;17.18;69.09;99372.75;5089829;27;45285;-76
2023/10/25 06:41:23;;;;;;;;;2.00;1.00;;;;;17.39;68.14;99403.25;5088420;27;46026;-76
2023/10/25 06:43:49;;;;;;;;;1.00;1.00;;;;;17.12;69.05;99372.88;5086335;27;45407;-76
2023/10/25 06:46:15;;;;;;;;;2.00;1.33;;;;;17.23;70.02;99412.28;5088790;27;46580;-77
2023/10/25 06:48:41;;;;;;;;;0.33;0.33;;;;;17.15;69.19;99408.88;5090310;27;45489;-77
2023/10/25 06:51:08;;;;;;;;;1.00;1.00;;;;;17.30;69.26;99417.44;5088197;27;45512;-75
2023/10/25 06:53:36;;;;;;;;;1.00;1.00;;;;;17.38;69.17;99424.38;5085328;27;45534;-78
2023/10/25 06:56:02;;;;;;;;;1.00;1.00;;;;;17.33;69.48;99394.53;5076514;28;45493;-76
2023/10/25 06:58:28;;;;;;;;;0.67;0.67;;;;;17.48;68.78;99428.59;5078874;27;45393;-76
2023/10/25 07:00:56;;;;;;;;;1.00;1.00;;;;;17.45;68.76;99418.13;5078598;27;46057;-76
2023/10/25 07:03:29;;;;;;;;;1.00;1.00;;;;;17.47;68.60;99425.09;5076506;28;45514;-75
2023/10/25 07:05:56;;;;;;;;;8.00;8.00;;;;;17.37;68.53;99406.78;5079091;27;45627;-75
2023/10/25 07:08:22;;;;;;;;;5.00;4.00;;;;;17.47;68.46;99405.75;5079538;27;45574;-76
2023/10/25 07:10:48;;;;;;;;;4.00;4.00;;;;;17.76;68.23;99452.78;5079113;28;46362;-75
2023/10/25 07:13:13;;;;;;;;;7.00;6.33;;;;;17.68;68.53;99445.00;5078837;27;45883;-75
2023/10/25 07:15:39;;;;;;;;;8.25;8.25;;;;;17.80;68.95;99461.53;5077272;28;45320;-76
2023/10/25 07:18:05;;;;;;;;;5.33;4.33;;;;;17.74;68.70;99467.78;5079147;27;45364;-77
2023/10/25 07:20:31;;;;;;;;;4.67;4.67;;;;;17.59;68.90;99439.00;5078652;27;45466;-75
2023/10/25 07:22:57;;;;;;;;;5.00;4.33;;;;;17.76;68.59;99466.00;5078743;27;45662;-76
2023/10/25 07:25:22;;;;;;;;;5.00;4.00;;;;;17.79;68.88;99465.09;5079422;28;45973;-77
2023/10/25 07:27:48;;;;;;;;;2.67;2.67;;;;;17.87;68.33;99479.94;5079621;27;45374;-79
2023/10/25 07:30:14;;;;;;;;;4.00;3.33;;;;;17.73;67.97;99471.34;5079033;27;45360;-76
2023/10/25 07:32:40;;;;;;;;;13.50;11.75;;;;;17.88;68.36;99496.66;5079324;27;45535;-75
2023/10/25 07:35:06;;;;;;;;;6.33;6.33;;;;;17.65;68.31;99463.53;5079122;27;45585;-78
2023/10/25 07:37:32;;;;;;;;;1.67;1.67;;;;;17.95;67.52;99494.81;5079462;27;45286;-75
2023/10/25 07:39:57;;;;;;;;;1.00;1.00;;;;;17.94;67.80;99496.53;5080621;27;45524;-77
2023/10/25 07:42:24;;;;;;;;;1.00;1.00;;;;;17.87;67.15;99487.00;5079100;27;45343;-77
2023/10/25 07:44:49;;;;;;;;;2.00;1.67;;;;;18.09;67.23;99521.84;5079285;28;45381;-80
2023/10/25 07:47:17;;;;;;;;;1.00;1.00;;;;;18.12;67.13;99513.00;5079040;27;45562;-75
2023/10/25 07:49:45;;;;;;;;;2.67;2.00;;;;;18.15;66.88;99524.38;5078806;27;45550;-75
2023/10/25 07:52:12;;;;;;;;;3.00;2.00;;;;;18.09;67.27;99501.56;5078779;27;45484;-80
2023/10/25 07:54:37;;;;;;;;;3.00;3.00;;;;;18.31;67.44;99511.78;5079490;27;45309;-77
2023/10/25 07:57:03;;;;;;;;;3.75;3.25;;;;;18.38;67.66;99517.81;5077798;28;45507;-76
2023/10/25 07:59:29;;;;;;;;;3.33;3.00;;;;;18.28;67.99;99503.88;5078794;27;46105;-74
2023/10/25 08:01:57;;;;;;;;;11.00;11.00;;;;;18.57;67.53;99518.34;5078787;28;45555;-75
2023/10/25 08:04:22;;;;;;;;;14.00;13.75;;;;;18.62;67.10;99524.41;5078895;27;45340;-74
2023/10/25 08:06:48;;;;;;;;;12.33;9.00;;;;;18.66;66.88;99523.44;5078791;28;45337;-78
2023/10/25 08:09:13;;;;;;;;;19.25;15.25;;;;;18.66;67.20;99529.63;5076795;28;45509;-79
2023/10/25 08:11:39;;;;;;;;;21.50;16.25;;;;;18.73;66.16;99532.16;5076712;27;45535;-76
2023/10/25 08:14:05;;;;;;;;;12.50;11.50;;;;;18.78;66.61;99527.63;5076919;27;45262;-79
2023/10/25 08:16:31;;;;;;;;;11.00;9.33;;;;;18.41;66.52;99465.75;5078548;27;45330;-76
2023/10/25 08:18:56;;;;;;;;;7.00;6.00;;;;;18.82;65.51;99529.34;5078145;27;45846;-78
2023/10/25 08:21:22;;;;;;;;;7.00;6.00;;;;;18.83;66.10;99528.44;5078215;28;45457;-75
2023/10/25 08:23:51;;;;;;;;;9.67;9.00;;;;;18.84;65.98;99524.88;5078337;27;45267;-77
2023/10/25 08:26:18;;;;;;;;;4.67;4.00;;;;;18.93;65.69;99537.94;5078530;28;45430;-80
2023/10/25 08:28:44;;;;;;;;;5.00;4.33;;;;;18.95;65.39;99538.78;5078072;28;45487;-76
2023/10/25 08:31:11;;;;;;;;;4.00;2.33;;;;;19.04;64.80;99538.59;5078223;28;45379;-76
2023/10/25 08:33:37;;;;;;;;;4.00;2.00;;;;;19.05;64.72;99542.13;5078738;27;45472;-78
2023/10/25 08:36:03;;;;;;;;;4.00;3.00;;;;;19.14;64.67;99530.44;5078126;27;45254;-76
2023/10/25 08:38:29;;;;;;;;;1.33;0.67;;;;;19.24;63.74;99522.28;5077858;27;46362;-77
2023/10/25 08:41:07;;;;;;;;;1.67;1.00;;;;;19.49;62.78;99524.38;5077766;27;45424;-77
2023/10/25 08:43:34;;;;;;;;;2.00;1.00;;;;;18.67;61.29;99340.03;5077368;27;45321;-78
2023/10/25 08:46:03;;;;;;;;;1.00;0.00;;;;;19.85;60.48;99505.91;5078111;27;45496;-76
2023/10/25 08:48:29;;;;;;;;;1.67;0.67;;;;;19.95;58.80;99498.59;5077464;27;46025;-78
2023/10/25 08:50:55;;;;;;;;;0.67;0.67;;;;;20.01;57.61;99482.53;5077521;27;45542;-78
2023/10/25 08:53:28;;;;;;;;;2.67;2.67;;;;;20.29;57.79;99509.19;5076286;28;45462;-76
2023/10/25 08:55:56;;;;;;;;;2.00;2.00;;;;;20.32;57.51;99487.91;5077991;27;45603;-76
2023/10/25 08:58:23;;;;;;;;;1.33;1.33;;;;;20.51;56.94;99503.31;5076020;28;46464;-78
2023/10/25 09:00:52;;;;;;;;;1.67;1.67;;;;;20.66;57.03;99503.78;5076003;28;45303;-78
2023/10/25 09:03:32;;;;;;;;;2.67;1.00;;;;;20.75;55.81;99513.28;5077608;27;45462;-77
2023/10/25 09:06:03;;;;;;;;;1.67;0.67;;;;;20.86;55.19;99499.72;5076596;27;45546;-77
2023/10/25 09:08:30;;;;;;;;;1.00;1.00;;;;;20.99;54.26;99510.81;5075952;28;47012;-78
2023/10/25 09:11:01;;;;;;;;;2.00;2.00;;;;;21.14;54.67;99504.22;5077290;27;45404;-75
2023/10/25 09:13:28;;;;;;;;;2.00;1.00;;;;;20.98;54.60;99477.25;5077530;28;45523;-80
2023/10/25 09:16:11;;;;;;;;;3.00;3.00;;;;;20.65;55.30;99422.47;5077720;27;45177;-79
2023/10/25 09:18:39;;;;;;;;;2.00;2.00;;;;;21.05;55.03;99497.41;5077289;27;45472;-78
2023/10/25 09:21:07;;;;;;;;;1.00;1.00;;;;;20.95;55.81;99495.91;5077535;27;45317;-80
2023/10/25 09:23:36;;;;;;;;;1.00;1.00;;;;;20.94;55.90;99492.38;5077394;27;45481;-77
2023/10/25 09:26:12;;;;;;;;;1.00;1.00;;;;;20.97;55.45;99496.72;5077378;27;45451;-79
2023/10/25 09:28:37;;;;;;;;;3.00;2.00;;;;;20.27;55.15;99384.63;5077047;27;46238;-78
2023/10/25 09:31:21;;;;;;;;;2.33;1.00;;;;;20.94;55.28;99510.09;5076913;28;45436;-79
2023/10/25 09:33:48;;;;;;;;;3.00;2.00;;;;;20.83;56.17;99495.38;5077482;27;45462;-81
2023/10/25 09:36:13;;;;;;;;;1.00;0.00;;;;;21.10;57.68;99542.41;5078050;27;45257;-78
2023/10/25 09:38:39;;;;;;;;;4.00;3.00;;;;;21.22;58.45;99552.66;5077038;27;45985;-78
2023/10/25 09:41:09;;;;;;;;;5.00;5.00;;;;;21.16;58.23;99524.47;5077063;28;45321;-77
2023/10/25 09:43:35;;;;;;;;;4.00;4.00;;;;;21.52;58.30;99563.31;5077010;27;45181;-75
2023/10/25 09:46:05;;;;;;;;;4.00;2.33;;;;;21.68;57.22;99569.88;5077661;28;45307;-79
2023/10/25 09:48:35;;;;;;;;;2.33;2.00;;;;;21.54;57.02;99535.75;5077197;27;46069;-79
2023/10/25 09:51:16;;;;;;;;;3.00;2.00;;;;;21.91;56.66;99586.91;5076886;27;45376;-76
2023/10/25 09:53:56;;;;;;;;;4.00;4.00;;;;;21.88;55.95;99566.59;5077597;27;45474;-77
2023/10/25 09:56:23;;;;;;;;;2.67;2.67;;;;;22.02;55.68;99588.31;5079084;27;45498;-79
2023/10/25 09:58:51;;;;;;;;;2.00;2.00;;;;;22.03;55.59;99594.50;5080426;27;46145;-77
2023/10/25 10:01:16;;;;;;;;;3.33;3.33;;;;;22.04;55.61;99593.56;5080889;27;45336;-76
2023/10/25 10:03:51;;;;;;;;;3.00;2.00;;;;;22.01;55.88;99599.84;5080965;27;45460;-74
2023/10/25 10:06:32;;;;;;;;;14.50;14.25;;;;;21.98;56.43;99604.38;5080552;27;45487;-75
2023/10/25 10:09:26;;;;;;;;;16.00;15.25;;;;;21.90;55.87;99609.94;5080218;28;45460;-75
2023/10/25 10:12:05;;;;;;;;;8.67;8.67;;;;;21.90;56.23;99601.97;5077212;27;45223;-75
2023/10/25 10:14:38;;;;;;;;;20.50;18.25;;;;;21.75;55.77;99592.69;5079829;27;45452;-80
2023/10/25 10:17:14;;;;;;;;;10.67;10.67;;;;;21.82;56.39;99614.63;5080134;27;45325;-75
2023/10/25 10:19:46;;;;;;;;;16.00;15.50;;;;;21.83;56.04;99611.06;5079722;28;46115;-75
2023/10/25 10:22:13;;;;;;;;;21.50;20.75;;;;;21.83;55.92;99613.72;5079816;27;45484;-75
2023/10/25 10:24:50;;;;;;;;;11.00;11.00;;;;;21.04;56.23;99477.06;5079677;27;45342;-75
2023/10/25 10:27:16;;;;;;;;;5.67;5.67;;;;;21.71;56.51;99608.81;5080245;27;45306;-76
2023/10/25 10:29:43;;;;;;;;;4.00;4.00;;;;;;;;5079816;27;46479;-76
2023/10/25 10:32:09;;;;;;;;;5.67;4.00;;;;;21.65;56.32;99607.19;5079816;27;45397;-78
2023/10/25 10:34:57;;;;;;;;;5.00;5.00;;;;;21.55;56.74;99601.28;5079783;27;45504;-76
2023/10/25 10:37:25;;;;;;;;;6.00;5.00;;;;;21.63;56.82;99601.91;5079861;27;45448;-77
2023/10/25 10:39:57;;;;;;;;;4.00;4.00;;;;;21.73;56.68;99620.25;5079550;27;46049;-75
2023/10/25 10:42:41;;;;;;;;;5.00;4.00;;;;;21.72;56.66;99613.19;5079251;27;45293;-75
2023/10/25 10:45:11;;;;;;;;;1.00;1.00;;;;;21.60;56.44;99594.03;5078350;28;45257;-76
2023/10/25 10:47:37;;;;;;;;;1.67;1.67;;;;;21.70;56.28;99615.88;5079994;28;45342;-75
2023/10/25 10:50:24;;;;;;;;;2.33;2.00;;;;;21.71;56.89;99616.78;5079267;27;46028;-76
2023/10/25 10:52:51;;;;;;;;;4.33;3.00;;;;;21.76;56.62;99623.66;5079674;28;45220;-75
2023/10/25 10:55:18;;;;;;;;;3.00;3.00;;;;;21.82;56.67;99626.13;5079902;27;45514;-76
2023/10/25 10:57:44;;;;;;;;;2.67;2.33;;;;;21.90;56.29;99617.91;5080110;27;45234;-73
2023/10/25 11:00:13;;;;;;;;;4.67;4.00;;;;;21.96;56.16;99619.53;5079571;27;46235;-74
2023/10/25 11:02:44;;;;;;;;;3.00;3.00;;;;;22.00;55.54;99611.41;5079328;27;45238;-79
2023/10/25 11:05:10;;;;;;;;;3.00;3.00;;;;;22.03;55.38;99608.66;5079513;28;45532;-78
2023/10/25 11:07:36;;;;;;;;;6.00;6.00;;;;;22.05;54.69;99600.63;5079131;27;45466;-75
2023/10/25 11:10:01;;;;;;;;;3.67;3.00;;;;;21.92;54.93;99568.22;5079095;27;46095;-74
2023/10/25 11:12:27;;;;;;;;;4.33;3.67;;;;;22.08;54.72;99589.00;5078932;27;45366;-75
2023/10/25 11:14:53;;;;;;;;;4.33;4.00;;;;;22.12;53.77;99580.00;5079279;27;45535;-75
2023/10/25 11:17:20;;;;;;;;;5.33;5.00;;;;;22.27;53.56;99576.03;5079616;27;45589;-75
2023/10/25 11:19:47;;;;;;;;;4.00;3.00;;;;;22.41;53.32;99573.75;5079362;27;46047;-74
2023/10/25 11:22:14;;;;;;;;;4.00;4.00;;;;;22.57;53.18;99563.44;5078957;27;45310;-74
2023/10/25 11:24:40;;;;;;;;;6.33;5.00;;;;;22.66;53.24;99554.25;5079380;27;45465;-74
2023/10/25 11:27:06;;;;;;;;;2.33;2.33;;;;;22.74;53.90;99542.44;5079299;27;45452;-74
2023/10/25 11:29:33;;;;;;;;;4.67;4.00;;;;;22.69;54.03;99519.56;5078646;28;46099;-74
2023/10/25 11:32:06;;;;;;;;;6.00;5.67;;;;;22.76;54.11;99519.28;5077343;28;45562;-75
2023/10/25 11:34:34;;;;;;;;;3.67;3.00;;;;;22.94;54.36;99532.81;5079343;28;45378;-74